sensor_id;sensor_type;location;lat;lon;timestamp;P1;durP1;ratioP1;P2;durP2;ratioP2
19566;SDS011;9930;49.240;8.548;2023-07-09T00:02:19;4.30;;;3.90;;
19566;SDS011;9930;49.240;8.548;2023-07-09T00:04:49;5.15;;;4.18;;
19566;SDS011;9930;49.240;8.548;2023-07-09T00:07:24;4.75;;;4.32;;
19566;SDS011;9930;49.240;8.548;2023-07-09T00:09:55;4.47;;;3.78;;
19566;SDS011;9930;49.240;8.548;2023-07-09T00:12:22;4.50;;;4.00;;
19566;SDS011;9930;49.240;8.548;2023-07-09T00:14:48;5.07;;;4.07;;
19566;SDS011;9930;49.240;8.548;2023-07-09T00:19:52;4.28;;;3.90;;
19566;SDS011;9930;49.240;8.548;2023-07-09T00:22:18;5.22;;;4.05;;
19566;SDS011;9930;49.240;8.548;2023-07-09T00:24:45;4.93;;;4.43;;
19566;SDS011;9930;49.240;8.548;2023-07-09T00:27:19;5.65;;;3.95;;
19566;SDS011;9930;49.240;8.548;2023-07-09T00:29:49;4.35;;;3.88;;
19566;SDS011;9930;49.240;8.548;2023-07-09T00:32:22;5.05;;;4.47;;
19566;SDS011;9930;49.240;8.548;2023-07-09T00:34:50;5.53;;;4.57;;
19566;SDS011;9930;49.240;8.548;2023-07-09T00:37:19;4.50;;;4.10;;
19566;SDS011;9930;49.240;8.548;2023-07-09T00:39:52;5.05;;;4.55;;
19566;SDS011;9930;49.240;8.548;2023-07-09T00:42:18;6.10;;;4.07;;
19566;SDS011;9930;49.240;8.548;2023-07-09T00:44:50;4.43;;;3.83;;
19566;SDS011;9930;49.240;8.548;2023-07-09T00:47:21;5.00;;;4.28;;
19566;SDS011;9930;49.240;8.548;2023-07-09T00:50:06;5.70;;;4.13;;
19566;SDS011;9930;49.240;8.548;2023-07-09T00:52:51;4.32;;;3.95;;
19566;SDS011;9930;49.240;8.548;2023-07-09T00:55:29;4.93;;;4.43;;
19566;SDS011;9930;49.240;8.548;2023-07-09T00:58:01;4.75;;;4.35;;
19566;SDS011;9930;49.240;8.548;2023-07-09T01:00:43;4.32;;;3.88;;
19566;SDS011;9930;49.240;8.548;2023-07-09T01:03:25;5.18;;;4.50;;
19566;SDS011;9930;49.240;8.548;2023-07-09T01:06:01;5.57;;;4.38;;
19566;SDS011;9930;49.240;8.548;2023-07-09T01:08:31;4.88;;;3.70;;
19566;SDS011;9930;49.240;8.548;2023-07-09T01:11:03;4.40;;;4.00;;
19566;SDS011;9930;49.240;8.548;2023-07-09T01:13:29;4.60;;;4.20;;
19566;SDS011;9930;49.240;8.548;2023-07-09T01:16:00;4.97;;;4.47;;
19566;SDS011;9930;49.240;8.548;2023-07-09T01:18:26;4.40;;;3.90;;
19566;SDS011;9930;49.240;8.548;2023-07-09T01:20:58;4.55;;;4.15;;
19566;SDS011;9930;49.240;8.548;2023-07-09T01:23:34;8.35;;;4.07;;
19566;SDS011;9930;49.240;8.548;2023-07-09T01:26:00;4.78;;;4.20;;
19566;SDS011;9930;49.240;8.548;2023-07-09T01:28:28;5.15;;;4.50;;
19566;SDS011;9930;49.240;8.548;2023-07-09T01:30:58;4.68;;;4.28;;
19566;SDS011;9930;49.240;8.548;2023-07-09T01:33:25;4.68;;;4.25;;
19566;SDS011;9930;49.240;8.548;2023-07-09T01:35:51;4.97;;;4.50;;
19566;SDS011;9930;49.240;8.548;2023-07-09T01:38:20;5.05;;;4.05;;
19566;SDS011;9930;49.240;8.548;2023-07-09T01:40:46;4.75;;;4.30;;
19566;SDS011;9930;49.240;8.548;2023-07-09T01:43:13;11.63;;;4.53;;
19566;SDS011;9930;49.240;8.548;2023-07-09T01:45:42;5.15;;;4.20;;
19566;SDS011;9930;49.240;8.548;2023-07-09T01:48:10;4.88;;;4.43;;
19566;SDS011;9930;49.240;8.548;2023-07-09T01:50:39;6.13;;;4.28;;
19566;SDS011;9930;49.240;8.548;2023-07-09T01:53:06;4.32;;;3.92;;
19566;SDS011;9930;49.240;8.548;2023-07-09T01:55:38;4.50;;;4.10;;
19566;SDS011;9930;49.240;8.548;2023-07-09T01:58:04;4.70;;;4.30;;
19566;SDS011;9930;49.240;8.548;2023-07-09T02:00:35;4.38;;;3.97;;
19566;SDS011;9930;49.240;8.548;2023-07-09T02:03:01;4.72;;;4.22;;
19566;SDS011;9930;49.240;8.548;2023-07-09T02:05:30;5.00;;;4.50;;
19566;SDS011;9930;49.240;8.548;2023-07-09T02:07:57;4.15;;;3.75;;
19566;SDS011;9930;49.240;8.548;2023-07-09T02:10:28;4.70;;;4.18;;
19566;SDS011;9930;49.240;8.548;2023-07-09T02:12:54;4.40;;;4.00;;
19566;SDS011;9930;49.240;8.548;2023-07-09T02:15:24;4.22;;;3.83;;
19566;SDS011;9930;49.240;8.548;2023-07-09T02:17:55;4.43;;;4.03;;
19566;SDS011;9930;49.240;8.548;2023-07-09T02:20:23;4.70;;;4.03;;
19566;SDS011;9930;49.240;8.548;2023-07-09T02:22:51;4.28;;;3.80;;
19566;SDS011;9930;49.240;8.548;2023-07-09T02:25:19;4.65;;;4.25;;
19566;SDS011;9930;49.240;8.548;2023-07-09T02:27:44;5.18;;;4.30;;
19566;SDS011;9930;49.240;8.548;2023-07-09T02:30:12;4.97;;;4.47;;
19566;SDS011;9930;49.240;8.548;2023-07-09T02:32:40;4.40;;;4.00;;
19566;SDS011;9930;49.240;8.548;2023-07-09T02:35:11;4.88;;;4.38;;
19566;SDS011;9930;49.240;8.548;2023-07-09T02:37:39;4.78;;;4.38;;
19566;SDS011;9930;49.240;8.548;2023-07-09T02:40:11;5.82;;;4.35;;
19566;SDS011;9930;49.240;8.548;2023-07-09T02:42:38;4.95;;;4.45;;
19566;SDS011;9930;49.240;8.548;2023-07-09T02:45:03;4.50;;;4.07;;
19566;SDS011;9930;49.240;8.548;2023-07-09T02:47:30;4.53;;;4.13;;
19566;SDS011;9930;49.240;8.548;2023-07-09T02:49:58;4.55;;;4.15;;
19566;SDS011;9930;49.240;8.548;2023-07-09T02:52:24;4.53;;;4.13;;
19566;SDS011;9930;49.240;8.548;2023-07-09T02:54:52;4.43;;;4.03;;
19566;SDS011;9930;49.240;8.548;2023-07-09T02:57:18;4.60;;;3.95;;
19566;SDS011;9930;49.240;8.548;2023-07-09T02:59:43;4.55;;;4.07;;
19566;SDS011;9930;49.240;8.548;2023-07-09T03:02:09;4.20;;;3.90;;
19566;SDS011;9930;49.240;8.548;2023-07-09T03:04:40;5.03;;;4.15;;
19566;SDS011;9930;49.240;8.548;2023-07-09T03:07:10;4.90;;;4.22;;
19566;SDS011;9930;49.240;8.548;2023-07-09T03:09:36;4.65;;;4.15;;
19566;SDS011;9930;49.240;8.548;2023-07-09T03:12:02;5.18;;;4.20;;
19566;SDS011;9930;49.240;8.548;2023-07-09T03:14:28;4.47;;;4.07;;
19566;SDS011;9930;49.240;8.548;2023-07-09T03:16:54;4.00;;;3.70;;
19566;SDS011;9930;49.240;8.548;2023-07-09T03:19:23;5.22;;;3.90;;
19566;SDS011;9930;49.240;8.548;2023-07-09T03:21:48;4.35;;;3.95;;
19566;SDS011;9930;49.240;8.548;2023-07-09T03:24:14;4.53;;;4.13;;
19566;SDS011;9930;49.240;8.548;2023-07-09T03:26:43;4.90;;;4.40;;
19566;SDS011;9930;49.240;8.548;2023-07-09T03:29:10;4.53;;;4.13;;
19566;SDS011;9930;49.240;8.548;2023-07-09T03:31:36;4.93;;;4.43;;
19566;SDS011;9930;49.240;8.548;2023-07-09T03:34:09;4.80;;;4.40;;
19566;SDS011;9930;49.240;8.548;2023-07-09T03:36:34;5.65;;;5.13;;
19566;SDS011;9930;49.240;8.548;2023-07-09T03:39:03;4.82;;;4.35;;
19566;SDS011;9930;49.240;8.548;2023-07-09T03:41:30;4.95;;;4.32;;
19566;SDS011;9930;49.240;8.548;2023-07-09T03:43:56;4.95;;;4.55;;
19566;SDS011;9930;49.240;8.548;2023-07-09T03:46:24;4.80;;;4.30;;
19566;SDS011;9930;49.240;8.548;2023-07-09T03:48:51;5.20;;;4.70;;
19566;SDS011;9930;49.240;8.548;2023-07-09T03:51:17;4.47;;;4.07;;
19566;SDS011;9930;49.240;8.548;2023-07-09T03:53:45;4.90;;;4.35;;
19566;SDS011;9930;49.240;8.548;2023-07-09T03:56:10;4.55;;;4.15;;
19566;SDS011;9930;49.240;8.548;2023-07-09T03:58:36;4.32;;;3.92;;
19566;SDS011;9930;49.240;8.548;2023-07-09T04:01:07;4.45;;;4.03;;
19566;SDS011;9930;49.240;8.548;2023-07-09T04:03:36;5.20;;;4.70;;
19566;SDS011;9930;49.240;8.548;2023-07-09T04:06:03;5.82;;;4.10;;
19566;SDS011;9930;49.240;8.548;2023-07-09T04:08:29;4.45;;;4.05;;
19566;SDS011;9930;49.240;8.548;2023-07-09T04:10:58;5.20;;;4.22;;
19566;SDS011;9930;49.240;8.548;2023-07-09T04:13:28;4.68;;;4.28;;
19566;SDS011;9930;49.240;8.548;2023-07-09T04:15:56;4.80;;;4.30;;
19566;SDS011;9930;49.240;8.548;2023-07-09T04:18:22;4.63;;;4.13;;
19566;SDS011;9930;49.240;8.548;2023-07-09T04:20:51;4.40;;;4.00;;
19566;SDS011;9930;49.240;8.548;2023-07-09T04:23:18;4.32;;;3.92;;
19566;SDS011;9930;49.240;8.548;2023-07-09T04:25:44;4.35;;;3.95;;
19566;SDS011;9930;49.240;8.548;2023-07-09T04:28:12;4.35;;;3.95;;
19566;SDS011;9930;49.240;8.548;2023-07-09T04:30:39;4.47;;;3.88;;
19566;SDS011;9930;49.240;8.548;2023-07-09T04:33:13;4.65;;;4.18;;
19566;SDS011;9930;49.240;8.548;2023-07-09T04:35:43;4.38;;;3.80;;
19566;SDS011;9930;49.240;8.548;2023-07-09T04:38:10;4.60;;;4.00;;
19566;SDS011;9930;49.240;8.548;2023-07-09T04:40:36;3.78;;;3.47;;
19566;SDS011;9930;49.240;8.548;2023-07-09T04:43:02;4.47;;;4.07;;
19566;SDS011;9930;49.240;8.548;2023-07-09T04:45:28;4.18;;;3.78;;
19566;SDS011;9930;49.240;8.548;2023-07-09T04:47:53;6.40;;;4.10;;
19566;SDS011;9930;49.240;8.548;2023-07-09T04:50:19;3.78;;;3.47;;
19566;SDS011;9930;49.240;8.548;2023-07-09T04:52:45;4.30;;;3.90;;
19566;SDS011;9930;49.240;8.548;2023-07-09T04:55:10;3.92;;;3.53;;
19566;SDS011;9930;49.240;8.548;2023-07-09T04:57:36;4.38;;;3.97;;
19566;SDS011;9930;49.240;8.548;2023-07-09T05:00:03;4.18;;;3.80;;
19566;SDS011;9930;49.240;8.548;2023-07-09T05:02:31;4.47;;;3.90;;
19566;SDS011;9930;49.240;8.548;2023-07-09T05:05:03;4.05;;;3.65;;
19566;SDS011;9930;49.240;8.548;2023-07-09T05:07:30;4.10;;;3.67;;
19566;SDS011;9930;49.240;8.548;2023-07-09T05:09:57;4.63;;;3.72;;
19566;SDS011;9930;49.240;8.548;2023-07-09T05:12:28;4.10;;;3.78;;
19566;SDS011;9930;49.240;8.548;2023-07-09T05:14:56;4.75;;;3.58;;
19566;SDS011;9930;49.240;8.548;2023-07-09T05:17:22;4.25;;;3.60;;
19566;SDS011;9930;49.240;8.548;2023-07-09T05:19:49;4.13;;;3.63;;
19566;SDS011;9930;49.240;8.548;2023-07-09T05:22:17;3.58;;;3.28;;
19566;SDS011;9930;49.240;8.548;2023-07-09T05:24:43;3.88;;;3.47;;
19566;SDS011;9930;49.240;8.548;2023-07-09T05:27:09;3.92;;;3.55;;
19566;SDS011;9930;49.240;8.548;2023-07-09T05:29:35;3.80;;;3.50;;
19566;SDS011;9930;49.240;8.548;2023-07-09T05:32:05;3.83;;;3.50;;
19566;SDS011;9930;49.240;8.548;2023-07-09T05:34:34;3.78;;;3.25;;
19566;SDS011;9930;49.240;8.548;2023-07-09T05:37:00;3.70;;;3.40;;
19566;SDS011;9930;49.240;8.548;2023-07-09T05:39:26;4.43;;;4.03;;
19566;SDS011;9930;49.240;8.548;2023-07-09T05:41:54;3.50;;;3.20;;
19566;SDS011;9930;49.240;8.548;2023-07-09T05:44:19;4.13;;;3.60;;
19566;SDS011;9930;49.240;8.548;2023-07-09T05:46:47;3.75;;;3.30;;
19566;SDS011;9930;49.240;8.548;2023-07-09T05:49:16;3.50;;;3.20;;
19566;SDS011;9930;49.240;8.548;2023-07-09T05:51:43;4.00;;;3.33;;
19566;SDS011;9930;49.240;8.548;2023-07-09T05:54:12;3.75;;;3.40;;
19566;SDS011;9930;49.240;8.548;2023-07-09T05:56:37;4.07;;;3.60;;
19566;SDS011;9930;49.240;8.548;2023-07-09T05:59:05;5.90;;;3.50;;
19566;SDS011;9930;49.240;8.548;2023-07-09T06:01:36;3.88;;;3.58;;
19566;SDS011;9930;49.240;8.548;2023-07-09T06:04:03;3.75;;;3.30;;
19566;SDS011;9930;49.240;8.548;2023-07-09T06:06:29;4.05;;;3.50;;
19566;SDS011;9930;49.240;8.548;2023-07-09T06:08:57;4.18;;;3.78;;
19566;SDS011;9930;49.240;8.548;2023-07-09T06:11:25;4.53;;;3.42;;
19566;SDS011;9930;49.240;8.548;2023-07-09T06:13:50;3.92;;;3.63;;
19566;SDS011;9930;49.240;8.548;2023-07-09T06:16:17;4.25;;;3.58;;
19566;SDS011;9930;49.240;8.548;2023-07-09T06:18:45;3.70;;;3.40;;
19566;SDS011;9930;49.240;8.548;2023-07-09T06:21:10;3.60;;;3.30;;
19566;SDS011;9930;49.240;8.548;2023-07-09T06:23:40;3.58;;;3.28;;
19566;SDS011;9930;49.240;8.548;2023-07-09T06:26:12;4.05;;;3.20;;
19566;SDS011;9930;49.240;8.548;2023-07-09T06:28:37;4.15;;;3.45;;
19566;SDS011;9930;49.240;8.548;2023-07-09T06:31:03;3.33;;;3.03;;
19566;SDS011;9930;49.240;8.548;2023-07-09T06:33:29;3.83;;;3.53;;
19566;SDS011;9930;49.240;8.548;2023-07-09T06:36:00;3.47;;;3.03;;
19566;SDS011;9930;49.240;8.548;2023-07-09T06:38:29;3.70;;;3.40;;
19566;SDS011;9930;49.240;8.548;2023-07-09T06:40:58;3.80;;;3.50;;
19566;SDS011;9930;49.240;8.548;2023-07-09T06:43:27;3.35;;;3.15;;
19566;SDS011;9930;49.240;8.548;2023-07-09T06:45:57;4.28;;;3.35;;
19566;SDS011;9930;49.240;8.548;2023-07-09T06:48:25;3.50;;;3.15;;
19566;SDS011;9930;49.240;8.548;2023-07-09T06:50:53;3.80;;;3.50;;
19566;SDS011;9930;49.240;8.548;2023-07-09T06:53:21;3.60;;;3.30;;
19566;SDS011;9930;49.240;8.548;2023-07-09T06:55:49;3.78;;;3.47;;
19566;SDS011;9930;49.240;8.548;2023-07-09T06:58:20;3.75;;;3.38;;
19566;SDS011;9930;49.240;8.548;2023-07-09T07:00:50;4.05;;;3.63;;
19566;SDS011;9930;49.240;8.548;2023-07-09T07:03:20;4.47;;;3.72;;
19566;SDS011;9930;49.240;8.548;2023-07-09T07:05:48;4.05;;;3.47;;
19566;SDS011;9930;49.240;8.548;2023-07-09T07:08:22;3.67;;;3.38;;
19566;SDS011;9930;49.240;8.548;2023-07-09T07:10:50;3.67;;;3.38;;
19566;SDS011;9930;49.240;8.548;2023-07-09T07:13:37;3.55;;;3.22;;
19566;SDS011;9930;49.240;8.548;2023-07-09T07:16:06;3.78;;;3.47;;
19566;SDS011;9930;49.240;8.548;2023-07-09T07:18:37;4.53;;;3.42;;
19566;SDS011;9930;49.240;8.548;2023-07-09T07:21:05;4.05;;;3.58;;
19566;SDS011;9930;49.240;8.548;2023-07-09T07:23:36;3.97;;;3.67;;
19566;SDS011;9930;49.240;8.548;2023-07-09T07:26:02;3.78;;;3.38;;
19566;SDS011;9930;49.240;8.548;2023-07-09T07:28:29;4.03;;;3.42;;
19566;SDS011;9930;49.240;8.548;2023-07-09T07:30:59;3.50;;;3.20;;
19566;SDS011;9930;49.240;8.548;2023-07-09T07:33:26;5.20;;;3.70;;
19566;SDS011;9930;49.240;8.548;2023-07-09T07:35:57;3.78;;;3.47;;
19566;SDS011;9930;49.240;8.548;2023-07-09T07:38:22;3.53;;;3.22;;
19566;SDS011;9930;49.240;8.548;2023-07-09T07:40:48;4.13;;;3.35;;
19566;SDS011;9930;49.240;8.548;2023-07-09T07:43:14;3.70;;;3.40;;
19566;SDS011;9930;49.240;8.548;2023-07-09T07:45:40;3.78;;;3.47;;
19566;SDS011;9930;49.240;8.548;2023-07-09T07:48:08;3.88;;;3.58;;
19566;SDS011;9930;49.240;8.548;2023-07-09T07:50:35;3.90;;;3.60;;
19566;SDS011;9930;49.240;8.548;2023-07-09T07:53:03;5.20;;;3.92;;
19566;SDS011;9930;49.240;8.548;2023-07-09T07:55:29;4.45;;;3.85;;
19566;SDS011;9930;49.240;8.548;2023-07-09T07:57:57;4.55;;;3.35;;
19566;SDS011;9930;49.240;8.548;2023-07-09T08:00:23;3.97;;;3.58;;
19566;SDS011;9930;49.240;8.548;2023-07-09T08:02:48;3.80;;;3.47;;
19566;SDS011;9930;49.240;8.548;2023-07-09T08:05:14;3.90;;;3.50;;
19566;SDS011;9930;49.240;8.548;2023-07-09T08:07:40;3.78;;;3.38;;
19566;SDS011;9930;49.240;8.548;2023-07-09T08:10:08;3.92;;;3.50;;
19566;SDS011;9930;49.240;8.548;2023-07-09T08:12:40;3.75;;;3.28;;
19566;SDS011;9930;49.240;8.548;2023-07-09T08:15:06;3.67;;;3.38;;
19566;SDS011;9930;49.240;8.548;2023-07-09T08:17:36;3.85;;;3.55;;
19566;SDS011;9930;49.240;8.548;2023-07-09T08:20:02;3.83;;;3.45;;
19566;SDS011;9930;49.240;8.548;2023-07-09T08:22:29;3.90;;;3.60;;
19566;SDS011;9930;49.240;8.548;2023-07-09T08:24:55;3.22;;;2.92;;
19566;SDS011;9930;49.240;8.548;2023-07-09T08:27:20;5.75;;;3.50;;
19566;SDS011;9930;49.240;8.548;2023-07-09T08:29:48;4.15;;;3.30;;
19566;SDS011;9930;49.240;8.548;2023-07-09T08:32:14;3.13;;;2.92;;
19566;SDS011;9930;49.240;8.548;2023-07-09T08:34:40;3.33;;;3.03;;
19566;SDS011;9930;49.240;8.548;2023-07-09T08:37:07;3.53;;;3.22;;
19566;SDS011;9930;49.240;8.548;2023-07-09T08:39:38;3.60;;;3.30;;
19566;SDS011;9930;49.240;8.548;2023-07-09T08:42:07;4.10;;;3.70;;
19566;SDS011;9930;49.240;8.548;2023-07-09T08:47:58;3.55;;;3.25;;
19566;SDS011;9930;49.240;8.548;2023-07-09T08:50:42;3.47;;;3.00;;
19566;SDS011;9930;49.240;8.548;2023-07-09T08:53:15;3.72;;;3.40;;
19566;SDS011;9930;49.240;8.548;2023-07-09T08:56:09;3.40;;;3.10;;
19566;SDS011;9930;49.240;8.548;2023-07-09T08:58:36;3.58;;;3.28;;
19566;SDS011;9930;49.240;8.548;2023-07-09T09:01:27;3.50;;;3.22;;
19566;SDS011;9930;49.240;8.548;2023-07-09T09:04:29;3.75;;;3.03;;
19566;SDS011;9930;49.240;8.548;2023-07-09T09:07:27;3.55;;;3.25;;
19566;SDS011;9930;49.240;8.548;2023-07-09T09:10:17;3.25;;;2.95;;
19566;SDS011;9930;49.240;8.548;2023-07-09T09:13:11;3.90;;;2.95;;
19566;SDS011;9930;49.240;8.548;2023-07-09T09:15:44;4.97;;;3.30;;
19566;SDS011;9930;49.240;8.548;2023-07-09T09:18:22;4.25;;;3.38;;
19566;SDS011;9930;49.240;8.548;2023-07-09T09:21:36;3.45;;;3.22;;
19566;SDS011;9930;49.240;8.548;2023-07-09T09:23:51;3.55;;;3.25;;
19566;SDS011;9930;49.240;8.548;2023-07-09T09:26:27;3.67;;;3.38;;
19566;SDS011;9930;49.240;8.548;2023-07-09T09:28:58;3.45;;;3.15;;
19566;SDS011;9930;49.240;8.548;2023-07-09T09:31:28;3.95;;;3.25;;
19566;SDS011;9930;49.240;8.548;2023-07-09T09:33:55;4.25;;;3.55;;
19566;SDS011;9930;49.240;8.548;2023-07-09T09:36:24;3.35;;;3.08;;
19566;SDS011;9930;49.240;8.548;2023-07-09T09:38:53;3.53;;;3.20;;
19566;SDS011;9930;49.240;8.548;2023-07-09T09:41:23;3.45;;;3.15;;
19566;SDS011;9930;49.240;8.548;2023-07-09T09:43:52;3.47;;;3.08;;
19566;SDS011;9930;49.240;8.548;2023-07-09T09:46:26;3.20;;;2.90;;
19566;SDS011;9930;49.240;8.548;2023-07-09T09:48:58;3.58;;;3.28;;
19566;SDS011;9930;49.240;8.548;2023-07-09T09:51:27;3.28;;;2.97;;
19566;SDS011;9930;49.240;8.548;2023-07-09T09:53:57;3.30;;;3.00;;
19566;SDS011;9930;49.240;8.548;2023-07-09T09:56:35;2.97;;;2.53;;
19566;SDS011;9930;49.240;8.548;2023-07-09T09:59:13;2.65;;;2.45;;
19566;SDS011;9930;49.240;8.548;2023-07-09T10:01:45;4.05;;;3.03;;
19566;SDS011;9930;49.240;8.548;2023-07-09T10:04:14;2.85;;;2.60;;
19566;SDS011;9930;49.240;8.548;2023-07-09T10:06:46;3.58;;;3.15;;
19566;SDS011;9930;49.240;8.548;2023-07-09T10:09:24;3.20;;;2.92;;
19566;SDS011;9930;49.240;8.548;2023-07-09T10:14:37;3.40;;;3.10;;
19566;SDS011;9930;49.240;8.548;2023-07-09T10:26:59;2.83;;;2.63;;
19566;SDS011;9930;49.240;8.548;2023-07-09T10:32:19;2.67;;;2.45;;
19566;SDS011;9930;49.240;8.548;2023-07-09T10:35:14;2.63;;;2.42;;
19566;SDS011;9930;49.240;8.548;2023-07-09T10:40:58;3.00;;;2.45;;
19566;SDS011;9930;49.240;8.548;2023-07-09T10:46:15;2.92;;;2.72;;
19566;SDS011;9930;49.240;8.548;2023-07-09T10:48:50;4.03;;;3.05;;
19566;SDS011;9930;49.240;8.548;2023-07-09T10:51:38;2.58;;;2.38;;
19566;SDS011;9930;49.240;8.548;2023-07-09T10:54:32;2.88;;;2.63;;
19566;SDS011;9930;49.240;8.548;2023-07-09T10:57:22;2.95;;;2.72;;
19566;SDS011;9930;49.240;8.548;2023-07-09T10:59:56;3.10;;;2.90;;
19566;SDS011;9930;49.240;8.548;2023-07-09T11:02:27;3.45;;;2.67;;
19566;SDS011;9930;49.240;8.548;2023-07-09T11:04:58;3.20;;;2.90;;
19566;SDS011;9930;49.240;8.548;2023-07-09T11:13:23;2.85;;;2.50;;
19566;SDS011;9930;49.240;8.548;2023-07-09T11:15:57;2.90;;;2.60;;
19566;SDS011;9930;49.240;8.548;2023-07-09T11:18:30;3.85;;;2.67;;
19566;SDS011;9930;49.240;8.548;2023-07-09T11:26:31;2.75;;;2.47;;
19566;SDS011;9930;49.240;8.548;2023-07-09T11:31:51;2.70;;;2.50;;
19566;SDS011;9930;49.240;8.548;2023-07-09T11:34:17;2.60;;;2.40;;
19566;SDS011;9930;49.240;8.548;2023-07-09T11:36:50;3.15;;;2.70;;
19566;SDS011;9930;49.240;8.548;2023-07-09T11:45:34;2.92;;;2.47;;
19566;SDS011;9930;49.240;8.548;2023-07-09T11:50:51;2.78;;;2.55;;
19566;SDS011;9930;49.240;8.548;2023-07-09T11:56:23;3.22;;;2.95;;
19566;SDS011;9930;49.240;8.548;2023-07-09T11:58:51;3.22;;;2.95;;
19566;SDS011;9930;49.240;8.548;2023-07-09T12:01:27;3.28;;;2.97;;
19566;SDS011;9930;49.240;8.548;2023-07-09T12:04:01;3.30;;;3.00;;
19566;SDS011;9930;49.240;8.548;2023-07-09T12:06:30;3.20;;;2.90;;
19566;SDS011;9930;49.240;8.548;2023-07-09T12:08:58;2.95;;;2.50;;
19566;SDS011;9930;49.240;8.548;2023-07-09T12:11:27;3.20;;;2.88;;
19566;SDS011;9930;49.240;8.548;2023-07-09T12:14:09;3.67;;;3.20;;
19566;SDS011;9930;49.240;8.548;2023-07-09T12:16:39;3.33;;;3.00;;
19566;SDS011;9930;49.240;8.548;2023-07-09T12:19:11;3.30;;;3.00;;
19566;SDS011;9930;49.240;8.548;2023-07-09T12:21:45;2.80;;;2.60;;
19566;SDS011;9930;49.240;8.548;2023-07-09T12:24:20;2.95;;;2.75;;
19566;SDS011;9930;49.240;8.548;2023-07-09T12:27:03;3.35;;;2.97;;
19566;SDS011;9930;49.240;8.548;2023-07-09T12:29:49;2.95;;;2.70;;
19566;SDS011;9930;49.240;8.548;2023-07-09T12:32:18;2.67;;;2.47;;
19566;SDS011;9930;49.240;8.548;2023-07-09T12:34:55;3.15;;;2.83;;
19566;SDS011;9930;49.240;8.548;2023-07-09T12:37:24;2.50;;;2.30;;
19566;SDS011;9930;49.240;8.548;2023-07-09T12:39:55;3.35;;;2.78;;
19566;SDS011;9930;49.240;8.548;2023-07-09T12:42:30;4.28;;;2.30;;
19566;SDS011;9930;49.240;8.548;2023-07-09T12:45:02;3.35;;;3.00;;
19566;SDS011;9930;49.240;8.548;2023-07-09T12:47:29;2.65;;;2.45;;
19566;SDS011;9930;49.240;8.548;2023-07-09T12:50:03;3.75;;;2.95;;
19566;SDS011;9930;49.240;8.548;2023-07-09T12:52:47;3.40;;;2.50;;
19566;SDS011;9930;49.240;8.548;2023-07-09T12:55:21;4.10;;;2.95;;
19566;SDS011;9930;49.240;8.548;2023-07-09T12:57:55;4.32;;;2.65;;
19566;SDS011;9930;49.240;8.548;2023-07-09T13:00:26;2.90;;;2.60;;
19566;SDS011;9930;49.240;8.548;2023-07-09T13:02:57;3.28;;;2.97;;
19566;SDS011;9930;49.240;8.548;2023-07-09T13:05:25;2.97;;;2.75;;
19566;SDS011;9930;49.240;8.548;2023-07-09T13:07:53;2.78;;;2.58;;
19566;SDS011;9930;49.240;8.548;2023-07-09T13:10:27;3.20;;;2.63;;
19566;SDS011;9930;49.240;8.548;2023-07-09T13:13:05;3.20;;;2.67;;
19566;SDS011;9930;49.240;8.548;2023-07-09T13:15:41;3.15;;;2.85;;
19566;SDS011;9930;49.240;8.548;2023-07-09T13:18:22;2.75;;;2.45;;
19566;SDS011;9930;49.240;8.548;2023-07-09T13:20:50;2.85;;;2.33;;
19566;SDS011;9930;49.240;8.548;2023-07-09T13:23:27;4.28;;;3.00;;
19566;SDS011;9930;49.240;8.548;2023-07-09T13:25:58;3.30;;;3.00;;
19566;SDS011;9930;49.240;8.548;2023-07-09T13:28:29;3.00;;;2.70;;
19566;SDS011;9930;49.240;8.548;2023-07-09T13:33:42;3.33;;;2.53;;
19566;SDS011;9930;49.240;8.548;2023-07-09T13:36:17;3.67;;;3.28;;
19566;SDS011;9930;49.240;8.548;2023-07-09T13:38:43;3.17;;;2.80;;
19566;SDS011;9930;49.240;8.548;2023-07-09T13:41:12;3.63;;;3.22;;
19566;SDS011;9930;49.240;8.548;2023-07-09T13:43:46;2.80;;;2.60;;
19566;SDS011;9930;49.240;8.548;2023-07-09T13:46:14;2.53;;;2.33;;
19566;SDS011;9930;49.240;8.548;2023-07-09T13:48:42;2.95;;;2.75;;
19566;SDS011;9930;49.240;8.548;2023-07-09T13:51:17;2.85;;;2.65;;
19566;SDS011;9930;49.240;8.548;2023-07-09T13:53:48;2.83;;;2.63;;
19566;SDS011;9930;49.240;8.548;2023-07-09T13:56:20;3.08;;;2.75;;
19566;SDS011;9930;49.240;8.548;2023-07-09T13:58:46;2.88;;;2.60;;
19566;SDS011;9930;49.240;8.548;2023-07-09T14:01:16;3.30;;;3.00;;
19566;SDS011;9930;49.240;8.548;2023-07-09T14:03:46;3.17;;;2.88;;
19566;SDS011;9930;49.240;8.548;2023-07-09T14:06:13;3.30;;;3.00;;
19566;SDS011;9930;49.240;8.548;2023-07-09T14:08:43;3.50;;;3.00;;
19566;SDS011;9930;49.240;8.548;2023-07-09T14:11:13;2.92;;;2.72;;
19566;SDS011;9930;49.240;8.548;2023-07-09T14:14:29;3.25;;;2.72;;
19566;SDS011;9930;49.240;8.548;2023-07-09T14:17:23;3.30;;;3.00;;
19566;SDS011;9930;49.240;8.548;2023-07-09T14:19:50;3.33;;;3.03;;
19566;SDS011;9930;49.240;8.548;2023-07-09T14:22:21;4.53;;;3.03;;
19566;SDS011;9930;49.240;8.548;2023-07-09T14:24:51;3.30;;;3.00;;
19566;SDS011;9930;49.240;8.548;2023-07-09T14:27:17;2.90;;;2.70;;
19566;SDS011;9930;49.240;8.548;2023-07-09T14:29:46;3.42;;;3.08;;
19566;SDS011;9930;49.240;8.548;2023-07-09T14:32:35;3.50;;;3.03;;
19566;SDS011;9930;49.240;8.548;2023-07-09T14:35:11;3.22;;;2.92;;
19566;SDS011;9930;49.240;8.548;2023-07-09T14:38:03;3.80;;;2.97;;
19566;SDS011;9930;49.240;8.548;2023-07-09T14:40:44;3.45;;;3.03;;
19566;SDS011;9930;49.240;8.548;2023-07-09T14:43:12;3.47;;;3.17;;
19566;SDS011;9930;49.240;8.548;2023-07-09T14:45:38;4.10;;;3.70;;
19566;SDS011;9930;49.240;8.548;2023-07-09T14:50:54;2.90;;;2.58;;
19566;SDS011;9930;49.240;8.548;2023-07-09T14:53:26;3.10;;;2.80;;
19566;SDS011;9930;49.240;8.548;2023-07-09T14:55:53;3.20;;;2.90;;
19566;SDS011;9930;49.240;8.548;2023-07-09T14:58:20;3.65;;;2.50;;
19566;SDS011;9930;49.240;8.548;2023-07-09T15:00:50;4.07;;;2.83;;
19566;SDS011;9930;49.240;8.548;2023-07-09T15:03:19;2.88;;;2.67;;
19566;SDS011;9930;49.240;8.548;2023-07-09T15:05:53;2.70;;;2.50;;
19566;SDS011;9930;49.240;8.548;2023-07-09T15:08:22;3.00;;;2.80;;
19566;SDS011;9930;49.240;8.548;2023-07-09T15:10:53;3.35;;;3.05;;
19566;SDS011;9930;49.240;8.548;2023-07-09T15:13:24;2.85;;;2.65;;
19566;SDS011;9930;49.240;8.548;2023-07-09T15:15:56;3.05;;;2.75;;
19566;SDS011;9930;49.240;8.548;2023-07-09T15:18:26;3.20;;;2.90;;
19566;SDS011;9930;49.240;8.548;2023-07-09T15:20:59;3.08;;;2.78;;
19566;SDS011;9930;49.240;8.548;2023-07-09T15:23:28;3.25;;;2.75;;
19566;SDS011;9930;49.240;8.548;2023-07-09T15:25:55;3.38;;;3.08;;
19566;SDS011;9930;49.240;8.548;2023-07-09T15:28:23;3.85;;;2.78;;
19566;SDS011;9930;49.240;8.548;2023-07-09T15:30:54;3.00;;;2.70;;
19566;SDS011;9930;49.240;8.548;2023-07-09T15:33:19;3.13;;;2.65;;
19566;SDS011;9930;49.240;8.548;2023-07-09T15:35:47;2.83;;;2.60;;
19566;SDS011;9930;49.240;8.548;2023-07-09T15:40:44;2.83;;;2.58;;
19566;SDS011;9930;49.240;8.548;2023-07-09T15:43:14;2.90;;;2.70;;
19566;SDS011;9930;49.240;8.548;2023-07-09T15:45:45;3.17;;;2.70;;
19566;SDS011;9930;49.240;8.548;2023-07-09T15:48:31;3.45;;;3.15;;
19566;SDS011;9930;49.240;8.548;2023-07-09T15:51:01;3.13;;;2.75;;
19566;SDS011;9930;49.240;8.548;2023-07-09T15:53:29;3.33;;;3.03;;
19566;SDS011;9930;49.240;8.548;2023-07-09T15:55:58;3.08;;;2.75;;
19566;SDS011;9930;49.240;8.548;2023-07-09T15:58:34;2.95;;;2.65;;
19566;SDS011;9930;49.240;8.548;2023-07-09T16:01:11;3.10;;;2.90;;
19566;SDS011;9930;49.240;8.548;2023-07-09T16:03:45;2.70;;;2.50;;
19566;SDS011;9930;49.240;8.548;2023-07-09T16:06:14;3.40;;;3.10;;
19566;SDS011;9930;49.240;8.548;2023-07-09T16:08:42;2.90;;;2.70;;
19566;SDS011;9930;49.240;8.548;2023-07-09T16:11:12;3.92;;;2.95;;
19566;SDS011;9930;49.240;8.548;2023-07-09T16:13:47;3.00;;;2.70;;
19566;SDS011;9930;49.240;8.548;2023-07-09T16:16:18;3.60;;;3.10;;
19566;SDS011;9930;49.240;8.548;2023-07-09T16:18:48;2.95;;;2.72;;
19566;SDS011;9930;49.240;8.548;2023-07-09T16:21:29;3.63;;;2.90;;
19566;SDS011;9930;49.240;8.548;2023-07-09T16:23:57;3.20;;;2.90;;